Terminal Aerodrome Forecast
Issued by NWS Central Illinois

Home | Current Version | Previous Version | Text Only | Print | Product List | Glossary On
Versions: 1 2 3 4 5 6 7 8 9 10 11 12 13 14 15 16 17 18 19 20 21 22
000
FTUS43 KILX 241728
TAFSPI
TAF
KSPI 241728Z 2418/2518 05008KT P6SM SCT035
      TEMPO 2418/2421 BKN035
     FM250000 06005KT P6SM SCT250=

USA.gov is the U.S. government's official web portal to all federal, state and local government web resources and services.